Time,TemperatureF,DewpointF,PressureIn,WindDirection,WindDirectionDegrees,WindSpeedMPH,WindSpeedGustMPH,Humidity,HourlyPrecipIn,Conditions,Clouds,dailyrainin,SoftwareType,DateUTC
2013-03-19 00:01:00,44.7,44.2,29.67,SSW,195,2.0,3.0,98,0.00,,,0.43,Wunderground v.1.15,2013-03-19 04:01:00,
2013-03-19 00:05:00,44.7,44.2,29.67,SSW,197,3.0,5.0,98,0.00,,,0.00,Wunderground v.1.15,2013-03-19 04:05:00,
2013-03-19 00:10:00,44.7,44.2,29.67,SSW,204,4.0,4.0,98,0.00,,,0.00,Wunderground v.1.15,2013-03-19 04:10:00,
2013-03-19 00:15:00,44.8,44.3,29.67,SW,225,5.0,5.0,98,0.00,,,0.00,Wunderground v.1.15,2013-03-19 04:15:00,
2013-03-19 00:25:00,45.0,44.5,29.67,SW,225,3.0,5.0,98,0.00,,,0.00,Wunderground v.1.15,2013-03-19 04:25:00,
2013-03-19 00:30:00,45.1,44.6,29.68,SW,225,2.0,2.0,98,0.00,,,0.00,Wunderground v.1.15,2013-03-19 04:30:00,
2013-03-19 00:40:00,45.0,44.5,29.68,SW,225,1.0,1.0,98,0.00,,,0.00,Wunderground v.1.15,2013-03-19 04:40:00,
2013-03-19 00:46:00,45.0,44.5,29.68,SW,225,0.0,1.0,98,0.00,,,0.00,Wunderground v.1.15,2013-03-19 04:46:00,
2013-03-19 00:50:00,45.0,44.5,29.67,SW,225,0.0,0.0,98,0.00,,,0.00,Wunderground v.1.15,2013-03-19 04:50:00,
2013-03-19 00:56:00,45.0,44.5,29.68,SW,225,0.0,0.0,98,0.00,,,0.00,Wunderground v.1.15,2013-03-19 04:56:00,
2013-03-19 01:05:00,45.1,44.6,29.68,SW,225,2.0,3.0,98,0.00,,,0.00,Wunderground v.1.15,2013-03-19 05:05:00,
2013-03-19 01:15:00,45.1,44.6,29.68,SW,225,0.0,2.0,98,0.00,,,0.00,Wunderground v.1.15,2013-03-19 05:15:00,
2013-03-19 01:25:00,45.0,44.5,29.67,SW,225,0.0,0.0,98,0.00,,,0.00,Wunderground v.1.15,2013-03-19 05:25:00,
2013-03-19 01:30:00,45.0,44.5,29.67,SW,225,0.0,0.0,98,0.00,,,0.00,Wunderground v.1.15,2013-03-19 05:30:00,
2013-03-19 01:35:00,45.0,44.5,29.67,SW,226,1.0,1.0,98,0.00,,,0.00,Wunderground v.1.15,2013-03-19 05:35:00,
2013-03-19 01:40:00,44.9,44.4,29.67,SW,226,1.0,1.0,98,0.00,,,0.00,Wunderground v.1.15,2013-03-19 05:40:00,
2013-03-19 01:50:00,44.8,44.3,29.67,SW,226,0.0,0.0,98,0.00,,,0.00,Wunderground v.1.15,2013-03-19 05:50:00,
2013-03-19 01:55:00,44.9,44.4,29.67,SW,226,0.0,0.0,98,0.00,,,0.00,Wunderground v.1.15,2013-03-19 05:55:00,
2013-03-19 02:00:00,44.9,44.4,29.67,SW,226,0.0,0.0,98,0.00,,,0.00,Wunderground v.1.15,2013-03-19 06:00:00,
2013-03-19 02:05:00,44.8,44.3,29.67,SW,226,0.0,0.0,98,0.00,,,0.00,Wunderground v.1.15,2013-03-19 06:05:00,
2013-03-19 02:16:00,44.8,44.3,29.67,SW,226,0.0,0.0,98,0.00,,,0.00,Wunderground v.1.15,2013-03-19 06:16:00,
2013-03-19 02:25:00,44.9,44.4,29.67,SW,226,0.0,0.0,98,0.00,,,0.00,Wunderground v.1.15,2013-03-19 06:25:00,
2013-03-19 02:30:00,44.8,44.3,29.67,SW,226,0.0,3.0,98,0.00,,,0.00,Wunderground v.1.15,2013-03-19 06:30:00,
2013-03-19 02:35:00,44.8,44.3,29.67,SW,226,1.0,3.0,98,0.00,,,0.00,Wunderground v.1.15,2013-03-19 06:35:00,
2013-03-19 02:45:00,44.7,44.2,29.67,NNW,330,2.0,2.0,98,0.00,,,0.00,Wunderground v.1.15,2013-03-19 06:45:00,
2013-03-19 02:55:00,44.4,43.9,29.67,NNW,330,1.0,2.0,98,0.00,,,0.00,Wunderground v.1.15,2013-03-19 06:55:00,
2013-03-19 03:00:00,44.2,43.7,29.67,NNW,332,2.0,5.0,98,0.00,,,0.00,Wunderground v.1.15,2013-03-19 07:00:00,
2013-03-19 03:10:00,44.0,43.5,29.67,NNW,332,1.0,1.0,98,0.00,,,0.00,Wunderground v.1.15,2013-03-19 07:10:00,
2013-03-19 03:15:00,44.0,43.5,29.67,NNW,332,0.0,1.0,98,0.00,,,0.00,Wunderground v.1.15,2013-03-19 07:15:00,
2013-03-19 03:25:00,43.7,43.2,29.67,NNW,332,1.0,2.0,98,0.00,,,0.00,Wunderground v.1.15,2013-03-19 07:25:00,
2013-03-19 03:35:00,43.5,43.0,29.66,NNW,332,0.0,1.0,98,0.00,,,0.00,Wunderground v.1.15,2013-03-19 07:35:00,
2013-03-19 03:40:00,43.3,42.8,29.66,NNW,332,0.0,0.0,98,0.00,,,0.00,Wunderground v.1.15,2013-03-19 07:40:00,
2013-03-19 03:45:00,43.3,42.8,29.66,NNW,332,0.0,2.0,98,0.00,,,0.00,Wunderground v.1.15,2013-03-19 07:45:00,
2013-03-19 03:55:00,43.0,42.5,29.66,NNW,332,0.0,1.0,98,0.00,,,0.00,Wunderground v.1.15,2013-03-19 07:55:00,
2013-03-19 04:00:00,42.7,42.2,29.66,NNW,332,0.0,0.0,98,0.00,,,0.00,Wunderground v.1.15,2013-03-19 08:00:00,
2013-03-19 04:05:00,42.4,41.9,29.66,NNW,332,0.0,1.0,98,0.00,,,0.00,Wunderground v.1.15,2013-03-19 08:05:00,
2013-03-19 04:10:00,42.6,42.1,29.66,NW,326,0.0,3.0,98,0.00,,,0.00,Wunderground v.1.15,2013-03-19 08:10:00,
2013-03-19 04:20:00,42.8,42.3,29.67,WSW,251,3.0,3.0,98,0.00,,,0.00,Wunderground v.1.15,2013-03-19 08:20:00,
2013-03-19 04:25:00,42.1,41.6,29.67,WSW,249,3.0,3.0,98,0.00,,,0.00,Wunderground v.1.15,2013-03-19 08:25:00,
2013-03-19 04:30:00,42.0,41.5,29.68,West,274,4.0,10.0,98,0.00,,,0.00,Wunderground v.1.15,2013-03-19 08:30:00,
2013-03-19 04:35:00,42.7,42.2,29.68,West,259,5.0,10.0,98,0.00,,,0.00,Wunderground v.1.15,2013-03-19 08:35:00,
2013-03-19 04:45:00,46.3,45.8,29.67,WNW,290,7.0,14.0,98,0.00,,,0.00,Wunderground v.1.15,2013-03-19 08:45:00,
2013-03-19 04:55:00,48.1,47.6,29.67,West,280,7.0,7.0,98,0.00,,,0.00,Wunderground v.1.15,2013-03-19 08:55:00,
2013-03-19 05:00:00,47.9,47.4,29.68,West,280,6.0,6.0,98,0.00,,,0.00,Wunderground v.1.15,2013-03-19 09:00:00,
2013-03-19 05:05:00,47.9,47.4,29.68,WNW,290,6.0,6.0,98,0.00,,,0.00,Wunderground v.1.15,2013-03-19 09:05:00,
2013-03-19 05:10:00,47.7,47.2,29.67,WNW,284,6.0,6.0,98,0.00,,,0.00,Wunderground v.1.15,2013-03-19 09:10:00,
2013-03-19 05:20:00,47.4,46.9,29.68,WNW,288,7.0,7.0,98,0.00,,,0.00,Wunderground v.1.15,2013-03-19 09:20:00,
2013-03-19 05:25:00,47.5,47.0,29.68,WNW,303,6.0,7.0,98,0.00,,,0.00,Wunderground v.1.15,2013-03-19 09:25:00,
2013-03-19 05:31:00,47.5,47.0,29.67,WNW,290,6.0,6.0,98,0.00,,,0.00,Wunderground v.1.15,2013-03-19 09:31:00,
2013-03-19 05:40:00,47.4,46.9,29.68,WNW,303,5.0,7.0,98,0.00,,,0.00,Wunderground v.1.15,2013-03-19 09:40:00,
2013-03-19 05:45:00,47.3,46.8,29.68,WNW,303,6.0,7.0,98,0.00,,,0.00,Wunderground v.1.15,2013-03-19 09:45:00,
2013-03-19 05:55:00,47.3,46.8,29.68,NW,323,6.0,10.0,98,0.00,,,0.00,Wunderground v.1.15,2013-03-19 09:55:00,
2013-03-19 06:00:00,47.4,46.9,29.69,North,356,6.0,10.0,98,0.00,,,0.00,Wunderground v.1.15,2013-03-19 10:00:00,
2013-03-19 06:10:00,47.3,46.8,29.69,NW,307,8.0,10.0,98,0.00,,,0.00,Wunderground v.1.15,2013-03-19 10:10:00,
2013-03-19 06:15:00,47.2,46.4,29.69,NW,318,10.0,13.0,97,0.00,,,0.00,Wunderground v.1.15,2013-03-19 10:15:00,
2013-03-19 06:20:00,47.2,46.1,29.70,NW,318,10.0,12.0,96,0.00,,,0.00,Wunderground v.1.15,2013-03-19 10:20:00,
2013-03-19 06:25:00,47.2,45.8,29.70,NNW,348,8.0,12.0,95,0.00,,,0.00,Wunderground v.1.15,2013-03-19 10:25:00,
2013-03-19 06:35:00,47.0,44.8,29.71,NNW,332,7.0,8.0,92,0.00,,,0.00,Wunderground v.1.15,2013-03-19 10:35:00,
2013-03-19 06:40:00,46.8,43.7,29.71,NW,305,8.0,8.0,89,0.00,,,0.00,Wunderground v.1.15,2013-03-19 10:40:00,
2013-03-19 06:45:00,46.5,42.8,29.72,NW,312,7.0,8.0,87,0.00,,,0.00,Wunderground v.1.15,2013-03-19 10:45:00,
2013-03-19 06:55:00,45.5,40.9,29.73,NNW,333,4.0,6.0,84,0.00,,,0.00,Wunderground v.1.15,2013-03-19 10:55:00,
2013-03-19 07:05:00,44.7,37.6,29.73,NNW,341,4.0,4.0,76,0.00,,,0.00,Wunderground v.1.15,2013-03-19 11:05:00,
2013-03-19 07:10:00,44.2,35.7,29.74,NNE,33,4.0,6.0,72,0.00,,,0.00,Wunderground v.1.15,2013-03-19 11:10:00,
2013-03-19 07:15:00,43.6,35.2,29.74,North,10,2.0,6.0,72,0.00,,,0.00,Wunderground v.1.15,2013-03-19 11:15:00,
2013-03-19 07:25:00,42.9,32.7,29.74,NNE,25,2.0,2.0,67,0.00,,,0.00,Wunderground v.1.15,2013-03-19 11:25:00,
2013-03-19 07:31:00,42.8,31.1,29.75,NNE,25,1.0,1.0,63,0.00,,,0.00,Wunderground v.1.15,2013-03-19 11:31:00,
2013-03-19 07:40:00,42.6,30.5,29.75,WNW,295,1.0,1.0,62,0.00,,,0.00,Wunderground v.1.15,2013-03-19 11:40:00,
2013-03-19 07:46:00,42.6,28.0,29.75,NNW,341,3.0,3.0,56,0.00,,,0.00,Wunderground v.1.15,2013-03-19 11:46:00,
2013-03-19 07:55:00,42.2,27.2,29.76,NNE,26,6.0,7.0,55,0.00,,,0.00,Wunderground v.1.15,2013-03-19 11:55:00,
2013-03-19 08:00:00,42.1,26.6,29.76,North,10,8.0,9.0,54,0.00,,,0.00,Wunderground v.1.15,2013-03-19 12:00:00,
2013-03-19 08:05:00,42.0,27.0,29.76,North,10,8.0,9.0,55,0.00,,,0.00,Wunderground v.1.15,2013-03-19 12:05:00,
2013-03-19 08:10:00,41.7,25.8,29.76,North,355,8.0,11.0,53,0.00,,,0.00,Wunderground v.1.15,2013-03-19 12:10:00,
2013-03-19 08:15:00,41.6,26.2,29.76,NNE,28,7.0,11.0,54,0.00,,,0.00,Wunderground v.1.15,2013-03-19 12:15:00,
2013-03-19 08:25:00,41.9,24.6,29.76,NNE,18,7.0,10.0,50,0.00,,,0.00,Wunderground v.1.15,2013-03-19 12:25:00,
2013-03-19 08:30:00,42.4,25.5,29.76,ENE,72,5.0,5.0,51,0.00,,,0.00,Wunderground v.1.15,2013-03-19 12:30:00,
2013-03-19 08:40:00,41.7,27.1,29.77,SSE,165,2.0,2.0,56,0.00,,,0.00,Wunderground v.1.15,2013-03-19 12:40:00,
2013-03-19 08:46:00,42.2,26.7,29.77,SSE,162,1.0,2.0,54,0.00,,,0.00,Wunderground v.1.15,2013-03-19 12:46:00,
2013-03-19 09:05:00,44.5,26.0,29.77,NW,311,1.0,3.0,48,0.00,,,0.00,Wunderground v.1.15,2013-03-19 13:05:00,
2013-03-19 09:10:00,44.9,26.4,29.78,NW,318,1.0,10.0,48,0.00,,,0.00,Wunderground v.1.15,2013-03-19 13:10:00,
2013-03-19 09:20:00,45.6,27.5,29.77,North,10,6.0,10.0,49,0.00,,,0.00,Wunderground v.1.15,2013-03-19 13:20:00,
2013-03-19 09:30:00,46.3,25.0,29.76,North,360,7.0,7.0,43,0.00,,,0.00,Wunderground v.1.15,2013-03-19 13:30:00,
2013-03-19 09:40:00,46.8,26.0,29.77,North,355,5.0,5.0,44,0.00,,,0.00,Wunderground v.1.15,2013-03-19 13:40:00,
2013-03-19 09:45:00,47.3,26.5,29.77,NNW,338,5.0,5.0,44,0.00,,,0.00,Wunderground v.1.15,2013-03-19 13:45:00,
2013-03-19 09:55:00,47.8,25.8,29.77,NNW,331,5.0,5.0,42,0.00,,,0.00,Wunderground v.1.15,2013-03-19 13:55:00,
2013-03-19 10:05:00,49.1,22.6,29.77,NW,313,7.0,10.0,35,0.00,,,0.00,Wunderground v.1.15,2013-03-19 14:05:00,
2013-03-19 10:10:00,48.9,24.4,29.77,North,5,6.0,6.0,38,0.00,,,0.00,Wunderground v.1.15,2013-03-19 14:10:00,
2013-03-19 10:20:00,48.5,22.7,29.78,North,356,6.0,6.0,36,0.00,,,0.00,Wunderground v.1.15,2013-03-19 14:20:00,
2013-03-19 10:25:00,48.8,24.3,29.78,NNE,22,7.0,12.0,38,0.00,,,0.00,Wunderground v.1.15,2013-03-19 14:25:00,
2013-03-19 10:35:00,49.0,25.1,29.78,NW,322,7.0,7.0,39,0.00,,,0.00,Wunderground v.1.15,2013-03-19 14:35:00,
2013-03-19 10:40:00,49.3,25.4,29.78,NW,306,6.0,6.0,39,0.00,,,0.00,Wunderground v.1.15,2013-03-19 14:40:00,
2013-03-19 10:46:00,49.3,26.0,29.78,WNW,299,5.0,6.0,40,0.00,,,0.00,Wunderground v.1.15,2013-03-19 14:46:00,
2013-03-19 10:55:00,49.4,25.4,29.79,NW,318,5.0,5.0,39,0.00,,,0.00,Wunderground v.1.15,2013-03-19 14:55:00,
2013-03-19 11:00:00,49.6,26.2,29.79,NW,309,5.0,5.0,40,0.00,,,0.00,Wunderground v.1.15,2013-03-19 15:00:00,
2013-03-19 11:10:00,50.3,27.5,29.79,West,261,5.0,7.0,41,0.00,,,0.00,Wunderground v.1.15,2013-03-19 15:10:00,
2013-03-19 11:15:00,51.0,28.7,29.79,NW,321,7.0,12.0,42,0.00,,,0.00,Wunderground v.1.15,2013-03-19 15:15:00,
2013-03-19 11:25:00,51.3,25.9,29.79,NNW,339,9.0,14.0,37,0.00,,,0.00,Wunderground v.1.15,2013-03-19 15:25:00,
2013-03-19 11:30:00,51.3,25.9,29.79,NW,313,10.0,14.0,37,0.00,,,0.00,Wunderground v.1.15,2013-03-19 15:30:00,
2013-03-19 11:40:00,51.7,25.6,29.80,NW,324,10.0,10.0,36,0.00,,,0.01,Wunderground v.1.15,2013-03-19 15:40:00,
2013-03-19 11:45:00,51.9,27.1,29.80,NW,306,8.0,8.0,38,0.00,,,0.01,Wunderground v.1.15,2013-03-19 15:45:00,
2013-03-19 11:55:00,52.4,26.9,29.80,NW,318,9.0,15.0,37,0.00,,,0.01,Wunderground v.1.15,2013-03-19 15:55:00,
2013-03-19 12:00:00,53.1,24.7,29.80,NNW,341,9.0,9.0,33,0.00,,,0.01,Wunderground v.1.15,2013-03-19 16:00:00,
2013-03-19 12:10:00,53.3,27.7,29.80,NW,313,9.0,9.0,37,0.00,,,0.01,Wunderground v.1.15,2013-03-19 16:10:00,
2013-03-19 12:15:00,53.4,27.1,29.80,NW,304,7.0,7.0,36,0.00,,,0.01,Wunderground v.1.15,2013-03-19 16:15:00,
2013-03-19 12:25:00,53.9,26.8,29.80,WNW,283,8.0,15.0,35,0.00,,,0.01,Wunderground v.1.15,2013-03-19 16:25:00,
2013-03-19 12:35:00,54.5,28.7,29.79,North,10,8.0,9.0,37,0.00,,,0.01,Wunderground v.1.15,2013-03-19 16:35:00,
2013-03-19 12:45:00,54.3,27.9,29.80,WNW,302,9.0,13.0,36,0.00,,,0.01,Wunderground v.1.15,2013-03-19 16:45:00,
2013-03-19 12:50:00,54.2,28.5,29.80,NNW,334,10.0,10.0,37,0.00,,,0.01,Wunderground v.1.15,2013-03-19 16:50:00,
2013-03-19 13:00:00,54.7,30.2,29.80,NW,306,7.0,11.0,39,0.00,,,0.01,Wunderground v.1.15,2013-03-19 17:00:00,
2013-03-19 13:10:00,54.8,27.6,29.80,NNE,15,8.0,8.0,35,0.00,,,0.01,Wunderground v.1.15,2013-03-19 17:10:00,
2013-03-19 13:20:00,55.0,27.8,29.79,NW,306,7.0,7.0,35,0.00,,,0.01,Wunderground v.1.15,2013-03-19 17:20:00,
2013-03-19 13:25:00,55.0,29.2,29.79,WNW,301,8.0,12.0,37,0.00,,,0.01,Wunderground v.1.15,2013-03-19 17:25:00,
2013-03-19 13:30:00,55.5,30.3,29.79,WNW,301,7.0,7.0,38,0.00,,,0.01,Wunderground v.1.15,2013-03-19 17:30:00,
2013-03-19 13:40:00,56.0,31.4,29.79,North,360,6.0,11.0,39,0.00,,,0.01,Wunderground v.1.15,2013-03-19 17:40:00,
2013-03-19 13:45:00,55.9,28.6,29.79,NW,312,5.0,11.0,35,0.00,,,0.01,Wunderground v.1.15,2013-03-19 17:45:00,
2013-03-19 13:55:00,56.0,32.0,29.79,NNE,25,7.0,7.0,40,0.00,,,0.01,Wunderground v.1.15,2013-03-19 17:55:00,
2013-03-19 14:00:00,55.4,30.2,29.78,SW,230,5.0,5.0,38,0.00,,,0.01,Wunderground v.1.15,2013-03-19 18:00:00,
2013-03-19 14:10:00,56.2,32.8,29.78,North,349,5.0,5.0,41,0.00,,,0.01,Wunderground v.1.15,2013-03-19 18:10:00,
2013-03-19 14:20:00,56.4,29.7,29.78,WNW,295,6.0,6.0,36,0.00,,,0.01,Wunderground v.1.15,2013-03-19 18:20:00,
2013-03-19 14:25:00,56.3,31.0,29.78,NW,320,6.0,11.0,38,0.00,,,0.01,Wunderground v.1.15,2013-03-19 18:25:00,
2013-03-19 14:35:00,56.8,31.4,29.78,WNW,298,9.0,9.0,38,0.00,,,0.01,Wunderground v.1.15,2013-03-19 18:35:00,
2013-03-19 14:40:00,56.6,30.6,29.78,West,276,9.0,9.0,37,0.00,,,0.01,Wunderground v.1.15,2013-03-19 18:40:00,
2013-03-19 14:50:00,56.9,31.5,29.78,WNW,302,9.0,10.0,38,0.00,,,0.01,Wunderground v.1.15,2013-03-19 18:50:00,
2013-03-19 14:55:00,57.2,31.8,29.78,WSW,239,11.0,12.0,38,0.00,,,0.01,Wunderground v.1.15,2013-03-19 18:55:00,
2013-03-19 15:05:00,57.6,31.5,29.78,WNW,288,11.0,18.0,37,0.00,,,0.01,Wunderground v.1.15,2013-03-19 19:05:00,
2013-03-19 15:15:00,57.6,32.2,29.78,WNW,294,12.0,12.0,38,0.00,,,0.01,Wunderground v.1.15,2013-03-19 19:15:00,
2013-03-19 15:20:00,57.7,30.9,29.78,WNW,282,12.0,17.0,36,0.00,,,0.01,Wunderground v.1.15,2013-03-19 19:20:00,
2013-03-19 15:30:00,57.7,32.2,29.78,NW,320,13.0,13.0,38,0.00,,,0.01,Wunderground v.1.15,2013-03-19 19:30:00,
2013-03-19 15:40:00,57.9,30.4,29.78,WNW,302,12.0,12.0,35,0.00,,,0.01,Wunderground v.1.15,2013-03-19 19:40:00,
2013-03-19 15:45:00,58.0,29.8,29.78,West,266,12.0,14.0,34,0.00,,,0.01,Wunderground v.1.15,2013-03-19 19:45:00,
2013-03-19 15:55:00,58.1,30.6,29.79,NW,312,12.0,13.0,35,0.00,,,0.01,Wunderground v.1.15,2013-03-19 19:55:00,
2013-03-19 16:00:00,57.9,27.4,29.79,NW,309,12.0,13.0,31,0.00,,,0.01,Wunderground v.1.15,2013-03-19 20:00:00,
2013-03-19 16:10:00,57.9,27.4,29.78,WNW,293,12.0,13.0,31,0.00,,,0.01,Wunderground v.1.15,2013-03-19 20:10:00,
2013-03-19 16:20:00,58.0,27.5,29.78,NW,309,14.0,14.0,31,0.00,,,0.01,Wunderground v.1.15,2013-03-19 20:20:00,
2013-03-19 16:25:00,57.5,26.3,29.79,NW,319,18.0,18.0,30,0.00,,,0.01,Wunderground v.1.15,2013-03-19 20:25:00,
2013-03-19 16:35:00,57.0,25.8,29.79,NW,313,16.0,18.0,30,0.00,,,0.01,Wunderground v.1.15,2013-03-19 20:35:00,
2013-03-19 16:40:00,57.0,25.8,29.78,WNW,285,16.0,16.0,30,0.00,,,0.01,Wunderground v.1.15,2013-03-19 20:40:00,
2013-03-19 16:50:00,56.8,28.7,29.79,NNW,329,15.0,15.0,34,0.00,,,0.01,Wunderground v.1.15,2013-03-19 20:50:00,
2013-03-19 16:55:00,56.8,27.2,29.79,NW,318,13.0,15.0,32,0.00,,,0.01,Wunderground v.1.15,2013-03-19 20:55:00,
2013-03-19 17:05:00,57.1,28.2,29.78,NW,324,12.0,12.0,33,0.00,,,0.01,Wunderground v.1.15,2013-03-19 21:05:00,
2013-03-19 17:10:00,57.2,27.6,29.78,NW,314,13.0,15.0,32,0.00,,,0.01,Wunderground v.1.15,2013-03-19 21:10:00,
2013-03-19 17:15:00,57.1,29.0,29.78,NNW,328,14.0,15.0,34,0.00,,,0.01,Wunderground v.1.15,2013-03-19 21:15:00,
2013-03-19 17:25:00,57.3,29.9,29.79,WNW,303,12.0,19.0,35,0.00,,,0.01,Wunderground v.1.15,2013-03-19 21:25:00,
2013-03-19 17:30:00,57.3,29.1,29.79,NW,319,10.0,11.0,34,0.00,,,0.01,Wunderground v.1.15,2013-03-19 21:30:00,
2013-03-19 17:35:00,57.3,28.4,29.78,WNW,301,9.0,15.0,33,0.00,,,0.01,Wunderground v.1.15,2013-03-19 21:35:00,
2013-03-19 17:40:00,57.1,26.7,29.78,NW,314,11.0,11.0,31,0.00,,,0.01,Wunderground v.1.15,2013-03-19 21:40:00,
2013-03-19 17:45:00,56.9,26.5,29.78,NNW,335,12.0,12.0,31,0.00,,,0.01,Wunderground v.1.15,2013-03-19 21:45:00,
2013-03-19 17:55:00,56.7,26.4,29.79,WNW,303,9.0,11.0,31,0.00,,,0.01,Wunderground v.1.15,2013-03-19 21:55:00,
2013-03-19 18:00:00,56.6,25.5,29.78,WSW,257,11.0,14.0,30,0.00,,,0.01,Wunderground v.1.15,2013-03-19 22:00:00,
2013-03-19 18:05:00,56.5,26.2,29.79,WNW,299,12.0,14.0,31,0.00,,,0.01,Wunderground v.1.15,2013-03-19 22:05:00,
2013-03-19 18:10:00,56.3,25.2,29.79,NW,312,12.0,12.0,30,0.00,,,0.01,Wunderground v.1.15,2013-03-19 22:10:00,
2013-03-19 18:15:00,56.0,25.0,29.79,NNW,331,12.0,14.0,30,0.00,,,0.01,Wunderground v.1.15,2013-03-19 22:15:00,
2013-03-19 18:25:00,55.5,26.1,29.79,NW,309,12.0,14.0,32,0.00,,,0.01,Wunderground v.1.15,2013-03-19 22:25:00,
2013-03-19 18:30:00,55.3,25.9,29.80,NW,313,10.0,10.0,32,0.00,,,0.01,Wunderground v.1.15,2013-03-19 22:30:00,
2013-03-19 18:40:00,55.0,25.6,29.80,NW,315,10.0,10.0,32,0.00,,,0.01,Wunderground v.1.15,2013-03-19 22:40:00,
2013-03-19 18:45:00,54.8,26.2,29.80,NW,311,9.0,10.0,33,0.00,,,0.01,Wunderground v.1.15,2013-03-19 22:45:00,
2013-03-19 18:55:00,54.5,26.0,29.80,NW,309,8.0,9.0,33,0.00,,,0.01,Wunderground v.1.15,2013-03-19 22:55:00,
2013-03-19 19:00:00,54.4,25.1,29.80,WNW,299,8.0,11.0,32,0.00,,,0.01,Wunderground v.1.15,2013-03-19 23:00:00,
2013-03-19 19:05:00,54.2,26.4,29.81,WNW,294,9.0,11.0,34,0.00,,,0.01,Wunderground v.1.15,2013-03-19 23:05:00,
2013-03-19 19:15:00,53.9,25.4,29.81,WNW,293,9.0,9.0,33,0.00,,,0.01,Wunderground v.1.15,2013-03-19 23:15:00,
2013-03-19 19:25:00,53.4,25.0,29.82,West,269,7.0,8.0,33,0.00,,,0.01,Wunderground v.1.15,2013-03-19 23:25:00,
2013-03-19 19:30:00,53.2,24.8,29.82,WNW,303,7.0,7.0,33,0.00,,,0.01,Wunderground v.1.15,2013-03-19 23:30:00,
2013-03-19 19:40:00,52.6,25.0,29.82,WNW,293,5.0,5.0,34,0.00,,,0.01,Wunderground v.1.15,2013-03-19 23:40:00,
2013-03-19 19:45:00,52.4,24.8,29.82,WNW,299,5.0,5.0,34,0.00,,,0.01,Wunderground v.1.15,2013-03-19 23:45:00,
2013-03-19 19:55:00,52.1,24.6,29.82,NW,305,4.0,5.0,34,0.00,,,0.01,Wunderground v.1.15,2013-03-19 23:55:00,
2013-03-19 20:00:00,51.8,24.3,29.83,NW,320,6.0,6.0,34,0.00,,,0.01,Wunderground v.1.15,2013-03-20 00:00:00,
2013-03-19 20:05:00,51.8,24.3,29.83,NW,318,5.0,6.0,34,0.00,,,0.01,Wunderground v.1.15,2013-03-20 00:05:00,
2013-03-19 20:15:00,51.4,23.2,29.83,NW,317,5.0,5.0,33,0.00,,,0.01,Wunderground v.1.15,2013-03-20 00:15:00,
2013-03-19 20:25:00,51.0,24.3,29.83,WNW,302,2.0,4.0,35,0.00,,,0.01,Wunderground v.1.15,2013-03-20 00:25:00,
2013-03-19 20:35:00,50.5,23.8,29.83,WNW,303,1.0,4.0,35,0.00,,,0.01,Wunderground v.1.15,2013-03-20 00:35:00,
2013-03-19 20:40:00,50.2,23.6,29.83,WNW,303,1.0,2.0,35,0.00,,,0.01,Wunderground v.1.15,2013-03-20 00:40:00,
2013-03-19 20:45:00,50.0,22.0,29.83,NNE,19,2.0,2.0,33,0.00,,,0.01,Wunderground v.1.15,2013-03-20 00:45:00,
2013-03-19 20:55:00,49.7,22.4,29.83,North,354,3.0,9.0,34,0.00,,,0.01,Wunderground v.1.15,2013-03-20 00:55:00,
2013-03-19 21:00:00,49.7,22.4,29.83,North,10,3.0,3.0,34,0.00,,,0.01,Wunderground v.1.15,2013-03-20 01:00:00,
2013-03-19 21:05:00,49.6,23.0,29.83,North,5,2.0,3.0,35,0.00,,,0.01,Wunderground v.1.15,2013-03-20 01:05:00,
2013-03-19 21:15:00,49.2,22.7,29.83,North,10,2.0,5.0,35,0.00,,,0.01,Wunderground v.1.15,2013-03-20 01:15:00,
2013-03-19 21:25:00,48.8,22.3,29.83,NNW,344,2.0,6.0,35,0.00,,,0.01,Wunderground v.1.15,2013-03-20 01:25:00,
2013-03-19 21:30:00,48.6,22.1,29.83,NNW,336,3.0,3.0,35,0.00,,,0.01,Wunderground v.1.15,2013-03-20 01:30:00,
2013-03-19 21:40:00,47.7,23.3,29.83,NNW,336,1.0,3.0,38,0.00,,,0.01,Wunderground v.1.15,2013-03-20 01:40:00,
2013-03-19 21:45:00,47.7,22.0,29.83,NNW,345,4.0,6.0,36,0.00,,,0.01,Wunderground v.1.15,2013-03-20 01:45:00,
2013-03-19 21:55:00,47.7,22.0,29.83,North,351,6.0,7.0,36,0.00,,,0.01,Wunderground v.1.15,2013-03-20 01:55:00,
2013-03-19 22:00:00,47.7,22.0,29.83,North,10,5.0,8.0,36,0.00,,,0.01,Wunderground v.1.15,2013-03-20 02:00:00,
2013-03-19 22:05:00,47.6,21.9,29.83,NW,316,5.0,8.0,36,0.00,,,0.01,Wunderground v.1.15,2013-03-20 02:05:00,
2013-03-19 22:10:00,47.4,21.7,29.83,NNW,348,5.0,5.0,36,0.00,,,0.01,Wunderground v.1.15,2013-03-20 02:10:00,
2013-03-19 22:15:00,47.5,20.5,29.83,NNW,341,6.0,6.0,34,0.00,,,0.01,Wunderground v.1.15,2013-03-20 02:15:00,
2013-03-19 22:25:00,47.3,20.3,29.84,North,353,6.0,6.0,34,0.00,,,0.01,Wunderground v.1.15,2013-03-20 02:25:00,
2013-03-19 22:35:00,47.0,19.3,29.84,NNW,335,6.0,6.0,33,0.00,,,0.01,Wunderground v.1.15,2013-03-20 02:35:00,
2013-03-19 22:40:00,46.9,19.3,29.84,NNW,331,6.0,6.0,33,0.00,,,0.01,Wunderground v.1.15,2013-03-20 02:40:00,
2013-03-19 22:45:00,47.0,18.6,29.84,NNW,334,4.0,6.0,32,0.00,,,0.01,Wunderground v.1.15,2013-03-20 02:45:00,
2013-03-19 22:50:00,46.5,19.6,29.84,NNW,334,3.0,3.0,34,0.00,,,0.01,Wunderground v.1.15,2013-03-20 02:50:00,
2013-03-19 22:55:00,46.3,18.7,29.84,North,356,3.0,4.0,33,0.00,,,0.01,Wunderground v.1.15,2013-03-20 02:55:00,
2013-03-19 23:05:00,46.3,18.0,29.84,North,10,4.0,4.0,32,0.00,,,0.01,Wunderground v.1.15,2013-03-20 03:05:00,
2013-03-19 23:10:00,46.4,18.1,29.84,NW,326,3.0,3.0,32,0.00,,,0.01,Wunderground v.1.15,2013-03-20 03:10:00,
2013-03-19 23:15:00,46.4,17.4,29.85,NNE,25,3.0,5.0,31,0.00,,,0.01,Wunderground v.1.15,2013-03-20 03:15:00,
2013-03-19 23:25:00,46.1,17.1,29.85,NE,49,4.0,10.0,31,0.00,,,0.01,Wunderground v.1.15,2013-03-20 03:25:00,
2013-03-19 23:30:00,46.0,17.0,29.85,NNW,338,5.0,5.0,31,0.00,,,0.01,Wunderground v.1.15,2013-03-20 03:30:00,
2013-03-19 23:35:00,45.9,16.9,29.85,North,360,5.0,6.0,31,0.00,,,0.01,Wunderground v.1.15,2013-03-20 03:35:00,
2013-03-19 23:40:00,45.8,16.1,29.85,North,360,5.0,6.0,30,0.00,,,0.01,Wunderground v.1.15,2013-03-20 03:40:00,
2013-03-19 23:45:00,45.7,15.2,29.85,NNW,346,6.0,6.0,29,0.00,,,0.01,Wunderground v.1.15,2013-03-20 03:45:00,
2013-03-19 23:55:00,45.2,15.6,29.84,North,5,5.0,9.0,30,0.00,,,0.01,Wunderground v.1.15,2013-03-20 03:55:00,